sensor_id;sensor_type;location;lat;lon;timestamp;P1;durP1;ratioP1;P2;durP2;ratioP2
24897;SDS011;12957;49.434;8.684;2023-02-15T00:01:49;53.30;;;20.23;;
24897;SDS011;12957;49.434;8.684;2023-02-15T00:04:16;64.00;;;19.53;;
24897;SDS011;12957;49.434;8.684;2023-02-15T00:06:45;155.17;;;19.83;;
24897;SDS011;12957;49.434;8.684;2023-02-15T00:09:10;69.70;;;19.20;;
24897;SDS011;12957;49.434;8.684;2023-02-15T00:11:36;48.77;;;18.13;;
24897;SDS011;12957;49.434;8.684;2023-02-15T00:16:37;71.57;;;19.87;;
24897;SDS011;12957;49.434;8.684;2023-02-15T00:19:04;64.17;;;18.73;;
24897;SDS011;12957;49.434;8.684;2023-02-15T00:21:30;47.97;;;18.97;;
24897;SDS011;12957;49.434;8.684;2023-02-15T00:23:56;61.27;;;19.17;;
24897;SDS011;12957;49.434;8.684;2023-02-15T00:26:22;120.63;;;20.33;;
24897;SDS011;12957;49.434;8.684;2023-02-15T00:28:48;49.80;;;17.40;;
24897;SDS011;12957;49.434;8.684;2023-02-15T00:31:13;58.30;;;18.47;;
24897;SDS011;12957;49.434;8.684;2023-02-15T00:33:39;41.37;;;16.87;;
24897;SDS011;12957;49.434;8.684;2023-02-15T00:36:05;48.90;;;16.33;;
24897;SDS011;12957;49.434;8.684;2023-02-15T00:38:32;177.00;;;19.67;;
24897;SDS011;12957;49.434;8.684;2023-02-15T00:40:58;72.27;;;16.90;;
24897;SDS011;12957;49.434;8.684;2023-02-15T00:43:25;42.13;;;16.77;;
24897;SDS011;12957;49.434;8.684;2023-02-15T00:45:51;89.97;;;18.80;;
24897;SDS011;12957;49.434;8.684;2023-02-15T00:48:17;49.93;;;17.27;;
24897;SDS011;12957;49.434;8.684;2023-02-15T00:50:49;58.33;;;17.97;;
24897;SDS011;12957;49.434;8.684;2023-02-15T00:53:16;97.63;;;18.80;;
24897;SDS011;12957;49.434;8.684;2023-02-15T00:55:42;45.57;;;17.67;;
24897;SDS011;12957;49.434;8.684;2023-02-15T00:58:08;47.40;;;18.40;;
24897;SDS011;12957;49.434;8.684;2023-02-15T01:00:34;67.27;;;20.37;;
24897;SDS011;12957;49.434;8.684;2023-02-15T01:02:59;52.77;;;18.93;;
24897;SDS011;12957;49.434;8.684;2023-02-15T01:05:25;60.47;;;18.57;;
24897;SDS011;12957;49.434;8.684;2023-02-15T01:07:50;54.47;;;19.33;;
24897;SDS011;12957;49.434;8.684;2023-02-15T01:10:16;60.40;;;19.07;;
24897;SDS011;12957;49.434;8.684;2023-02-15T01:12:41;41.93;;;17.60;;
24897;SDS011;12957;49.434;8.684;2023-02-15T01:15:07;43.63;;;16.60;;
24897;SDS011;12957;49.434;8.684;2023-02-15T01:17:33;51.83;;;19.13;;
24897;SDS011;12957;49.434;8.684;2023-02-15T01:19:59;51.47;;;18.03;;
24897;SDS011;12957;49.434;8.684;2023-02-15T01:22:24;61.07;;;20.00;;
24897;SDS011;12957;49.434;8.684;2023-02-15T01:24:50;124.63;;;20.60;;
24897;SDS011;12957;49.434;8.684;2023-02-15T01:27:15;59.10;;;18.50;;
24897;SDS011;12957;49.434;8.684;2023-02-15T01:29:41;55.93;;;19.70;;
24897;SDS011;12957;49.434;8.684;2023-02-15T01:32:06;47.80;;;18.07;;
24897;SDS011;12957;49.434;8.684;2023-02-15T01:34:32;56.13;;;20.43;;
24897;SDS011;12957;49.434;8.684;2023-02-15T01:36:57;52.23;;;18.37;;
24897;SDS011;12957;49.434;8.684;2023-02-15T01:39:23;49.87;;;18.47;;
24897;SDS011;12957;49.434;8.684;2023-02-15T01:41:48;44.90;;;17.83;;
24897;SDS011;12957;49.434;8.684;2023-02-15T01:50:25;40.33;;;18.03;;
24897;SDS011;12957;49.434;8.684;2023-02-15T01:55:29;39.97;;;16.73;;
24897;SDS011;12957;49.434;8.684;2023-02-15T01:57:57;47.00;;;16.47;;
24897;SDS011;12957;49.434;8.684;2023-02-15T02:00:23;42.57;;;17.20;;
24897;SDS011;12957;49.434;8.684;2023-02-15T02:02:50;42.30;;;16.47;;
24897;SDS011;12957;49.434;8.684;2023-02-15T02:05:17;39.47;;;15.93;;
24897;SDS011;12957;49.434;8.684;2023-02-15T02:07:43;35.47;;;15.40;;
24897;SDS011;12957;49.434;8.684;2023-02-15T02:10:11;41.57;;;16.17;;
24897;SDS011;12957;49.434;8.684;2023-02-15T02:12:38;34.80;;;15.60;;
24897;SDS011;12957;49.434;8.684;2023-02-15T02:15:06;37.13;;;16.20;;
24897;SDS011;12957;49.434;8.684;2023-02-15T02:26:05;35.97;;;15.23;;
24897;SDS011;12957;49.434;8.684;2023-02-15T02:43:05;41.63;;;16.80;;
24897;SDS011;12957;49.434;8.684;2023-02-15T02:46:39;43.17;;;17.03;;
24897;SDS011;12957;49.434;8.684;2023-02-15T02:48:40;42.40;;;16.20;;
24897;SDS011;12957;49.434;8.684;2023-02-15T02:51:05;42.60;;;16.63;;
24897;SDS011;12957;49.434;8.684;2023-02-15T02:53:31;48.30;;;17.97;;
24897;SDS011;12957;49.434;8.684;2023-02-15T02:58:46;41.33;;;16.37;;
24897;SDS011;12957;49.434;8.684;2023-02-15T03:01:15;42.77;;;16.87;;
24897;SDS011;12957;49.434;8.684;2023-02-15T03:03:51;49.63;;;18.30;;
24897;SDS011;12957;49.434;8.684;2023-02-15T03:06:20;40.97;;;17.23;;
24897;SDS011;12957;49.434;8.684;2023-02-15T03:08:51;52.50;;;16.80;;
24897;SDS011;12957;49.434;8.684;2023-02-15T03:11:20;41.73;;;16.40;;
24897;SDS011;12957;49.434;8.684;2023-02-15T03:13:46;39.97;;;16.83;;
24897;SDS011;12957;49.434;8.684;2023-02-15T03:16:13;35.77;;;15.63;;
24897;SDS011;12957;49.434;8.684;2023-02-15T03:21:48;40.00;;;15.27;;
24897;SDS011;12957;49.434;8.684;2023-02-15T03:24:23;40.33;;;16.10;;
24897;SDS011;12957;49.434;8.684;2023-02-15T03:26:50;40.50;;;16.73;;
24897;SDS011;12957;49.434;8.684;2023-02-15T03:29:19;41.43;;;16.20;;
24897;SDS011;12957;49.434;8.684;2023-02-15T03:31:46;39.87;;;16.63;;
24897;SDS011;12957;49.434;8.684;2023-02-15T03:34:15;43.07;;;17.37;;
24897;SDS011;12957;49.434;8.684;2023-02-15T03:41:49;41.93;;;15.83;;
24897;SDS011;12957;49.434;8.684;2023-02-15T03:44:27;37.73;;;16.13;;
24897;SDS011;12957;49.434;8.684;2023-02-15T03:47:03;36.10;;;15.57;;
24897;SDS011;12957;49.434;8.684;2023-02-15T03:49:45;36.27;;;15.80;;
24897;SDS011;12957;49.434;8.684;2023-02-15T03:52:15;40.40;;;15.80;;
24897;SDS011;12957;49.434;8.684;2023-02-15T03:54:41;39.50;;;16.60;;
24897;SDS011;12957;49.434;8.684;2023-02-15T04:00:15;35.60;;;15.07;;
24897;SDS011;12957;49.434;8.684;2023-02-15T04:03:07;35.30;;;15.60;;
24897;SDS011;12957;49.434;8.684;2023-02-15T04:05:40;38.57;;;15.53;;
24897;SDS011;12957;49.434;8.684;2023-02-15T04:08:07;33.67;;;15.37;;
24897;SDS011;12957;49.434;8.684;2023-02-15T04:10:32;34.97;;;15.00;;
24897;SDS011;12957;49.434;8.684;2023-02-15T04:13:16;37.10;;;15.70;;
24897;SDS011;12957;49.434;8.684;2023-02-15T04:15:42;37.37;;;15.63;;
24897;SDS011;12957;49.434;8.684;2023-02-15T04:18:26;38.03;;;15.40;;
24897;SDS011;12957;49.434;8.684;2023-02-15T04:21:10;32.30;;;14.63;;
24897;SDS011;12957;49.434;8.684;2023-02-15T04:23:55;33.43;;;14.93;;
24897;SDS011;12957;49.434;8.684;2023-02-15T04:26:39;42.30;;;15.03;;
24897;SDS011;12957;49.434;8.684;2023-02-15T04:29:04;34.33;;;15.33;;
24897;SDS011;12957;49.434;8.684;2023-02-15T04:31:29;30.43;;;13.77;;
24897;SDS011;12957;49.434;8.684;2023-02-15T04:33:55;37.00;;;16.20;;
24897;SDS011;12957;49.434;8.684;2023-02-15T04:36:20;34.40;;;13.97;;
24897;SDS011;12957;49.434;8.684;2023-02-15T04:38:46;36.13;;;15.03;;
24897;SDS011;12957;49.434;8.684;2023-02-15T04:41:11;31.40;;;14.67;;
24897;SDS011;12957;49.434;8.684;2023-02-15T04:43:38;28.73;;;14.17;;
24897;SDS011;12957;49.434;8.684;2023-02-15T04:46:03;33.33;;;15.10;;
24897;SDS011;12957;49.434;8.684;2023-02-15T04:48:29;34.97;;;14.10;;
24897;SDS011;12957;49.434;8.684;2023-02-15T04:50:55;30.43;;;13.73;;
24897;SDS011;12957;49.434;8.684;2023-02-15T04:53:20;29.47;;;13.80;;
24897;SDS011;12957;49.434;8.684;2023-02-15T04:55:46;31.90;;;14.33;;
24897;SDS011;12957;49.434;8.684;2023-02-15T04:58:11;29.47;;;14.10;;
24897;SDS011;12957;49.434;8.684;2023-02-15T05:00:37;30.30;;;14.23;;
24897;SDS011;12957;49.434;8.684;2023-02-15T05:03:02;34.60;;;15.17;;
24897;SDS011;12957;49.434;8.684;2023-02-15T05:05:28;32.77;;;14.13;;
24897;SDS011;12957;49.434;8.684;2023-02-15T05:07:53;33.70;;;15.20;;
24897;SDS011;12957;49.434;8.684;2023-02-15T05:10:19;30.53;;;14.50;;
24897;SDS011;12957;49.434;8.684;2023-02-15T05:12:44;40.13;;;15.27;;
24897;SDS011;12957;49.434;8.684;2023-02-15T05:15:10;30.03;;;13.83;;
24897;SDS011;12957;49.434;8.684;2023-02-15T05:17:36;32.07;;;13.50;;
24897;SDS011;12957;49.434;8.684;2023-02-15T05:20:01;31.10;;;13.80;;
24897;SDS011;12957;49.434;8.684;2023-02-15T05:22:27;36.10;;;14.60;;
24897;SDS011;12957;49.434;8.684;2023-02-15T05:24:52;31.90;;;14.03;;
24897;SDS011;12957;49.434;8.684;2023-02-15T05:27:36;31.93;;;14.30;;
24897;SDS011;12957;49.434;8.684;2023-02-15T05:30:28;31.33;;;13.23;;
24897;SDS011;12957;49.434;8.684;2023-02-15T05:32:53;28.83;;;13.47;;
24897;SDS011;12957;49.434;8.684;2023-02-15T05:35:19;25.47;;;12.93;;
24897;SDS011;12957;49.434;8.684;2023-02-15T05:37:44;29.93;;;14.37;;
24897;SDS011;12957;49.434;8.684;2023-02-15T05:40:10;34.43;;;14.03;;
24897;SDS011;12957;49.434;8.684;2023-02-15T05:42:36;34.50;;;14.10;;
24897;SDS011;12957;49.434;8.684;2023-02-15T05:45:01;33.97;;;14.23;;
24897;SDS011;12957;49.434;8.684;2023-02-15T05:47:28;31.00;;;14.13;;
24897;SDS011;12957;49.434;8.684;2023-02-15T05:49:54;27.40;;;13.37;;
24897;SDS011;12957;49.434;8.684;2023-02-15T05:52:19;28.57;;;13.43;;
24897;SDS011;12957;49.434;8.684;2023-02-15T05:54:45;30.90;;;14.40;;
24897;SDS011;12957;49.434;8.684;2023-02-15T05:57:10;32.67;;;14.20;;
24897;SDS011;12957;49.434;8.684;2023-02-15T05:59:36;24.37;;;12.77;;
24897;SDS011;12957;49.434;8.684;2023-02-15T06:02:01;30.27;;;13.77;;
24897;SDS011;12957;49.434;8.684;2023-02-15T06:04:27;32.47;;;14.33;;
24897;SDS011;12957;49.434;8.684;2023-02-15T06:06:52;33.87;;;13.93;;
24897;SDS011;12957;49.434;8.684;2023-02-15T06:09:18;36.20;;;14.67;;
24897;SDS011;12957;49.434;8.684;2023-02-15T06:11:44;35.07;;;15.03;;
24897;SDS011;12957;49.434;8.684;2023-02-15T06:14:10;33.20;;;14.23;;
24897;SDS011;12957;49.434;8.684;2023-02-15T06:16:36;39.23;;;15.67;;
24897;SDS011;12957;49.434;8.684;2023-02-15T06:19:02;40.03;;;15.70;;
24897;SDS011;12957;49.434;8.684;2023-02-15T06:21:28;38.50;;;15.50;;
24897;SDS011;12957;49.434;8.684;2023-02-15T06:23:54;37.17;;;15.93;;
24897;SDS011;12957;49.434;8.684;2023-02-15T06:26:19;39.43;;;15.93;;
24897;SDS011;12957;49.434;8.684;2023-02-15T06:28:45;37.33;;;14.83;;
24897;SDS011;12957;49.434;8.684;2023-02-15T06:31:10;42.60;;;16.90;;
24897;SDS011;12957;49.434;8.684;2023-02-15T06:33:36;34.93;;;15.23;;
24897;SDS011;12957;49.434;8.684;2023-02-15T06:36:01;44.97;;;17.37;;
24897;SDS011;12957;49.434;8.684;2023-02-15T06:38:28;41.10;;;17.20;;
24897;SDS011;12957;49.434;8.684;2023-02-15T06:40:54;38.67;;;15.80;;
24897;SDS011;12957;49.434;8.684;2023-02-15T06:43:19;37.13;;;16.13;;
24897;SDS011;12957;49.434;8.684;2023-02-15T06:45:45;40.97;;;15.83;;
24897;SDS011;12957;49.434;8.684;2023-02-15T06:48:10;37.93;;;16.03;;
24897;SDS011;12957;49.434;8.684;2023-02-15T06:50:36;33.73;;;15.87;;
24897;SDS011;12957;49.434;8.684;2023-02-15T06:53:01;37.23;;;15.77;;
24897;SDS011;12957;49.434;8.684;2023-02-15T06:55:27;38.77;;;16.53;;
24897;SDS011;12957;49.434;8.684;2023-02-15T06:57:52;35.03;;;16.63;;
24897;SDS011;12957;49.434;8.684;2023-02-15T07:00:18;35.80;;;15.50;;
24897;SDS011;12957;49.434;8.684;2023-02-15T07:02:44;34.93;;;15.47;;
24897;SDS011;12957;49.434;8.684;2023-02-15T07:05:09;35.37;;;14.93;;
24897;SDS011;12957;49.434;8.684;2023-02-15T07:07:35;32.90;;;15.17;;
24897;SDS011;12957;49.434;8.684;2023-02-15T07:10:00;31.77;;;14.80;;
24897;SDS011;12957;49.434;8.684;2023-02-15T07:12:26;34.87;;;14.80;;
24897;SDS011;12957;49.434;8.684;2023-02-15T07:15:08;31.60;;;14.87;;
24897;SDS011;12957;49.434;8.684;2023-02-15T07:17:34;33.23;;;15.27;;
24897;SDS011;12957;49.434;8.684;2023-02-15T07:20:00;29.00;;;14.67;;
24897;SDS011;12957;49.434;8.684;2023-02-15T07:22:26;33.80;;;16.00;;
24897;SDS011;12957;49.434;8.684;2023-02-15T07:24:52;32.87;;;15.10;;
24897;SDS011;12957;49.434;8.684;2023-02-15T07:27:20;31.97;;;15.07;;
24897;SDS011;12957;49.434;8.684;2023-02-15T07:29:46;35.07;;;16.07;;
24897;SDS011;12957;49.434;8.684;2023-02-15T07:32:11;32.40;;;15.10;;
24897;SDS011;12957;49.434;8.684;2023-02-15T07:34:36;36.37;;;16.00;;
24897;SDS011;12957;49.434;8.684;2023-02-15T07:37:02;32.33;;;14.90;;
24897;SDS011;12957;49.434;8.684;2023-02-15T07:39:27;32.80;;;13.83;;
24897;SDS011;12957;49.434;8.684;2023-02-15T07:41:53;35.03;;;14.97;;
24897;SDS011;12957;49.434;8.684;2023-02-15T07:44:18;32.93;;;14.50;;
24897;SDS011;12957;49.434;8.684;2023-02-15T07:46:44;33.77;;;14.93;;
24897;SDS011;12957;49.434;8.684;2023-02-15T07:49:09;32.03;;;16.00;;
24897;SDS011;12957;49.434;8.684;2023-02-15T07:51:35;38.63;;;17.03;;
24897;SDS011;12957;49.434;8.684;2023-02-15T07:54:00;33.37;;;15.10;;
24897;SDS011;12957;49.434;8.684;2023-02-15T07:56:26;38.43;;;16.27;;
24897;SDS011;12957;49.434;8.684;2023-02-15T07:58:51;34.83;;;16.13;;
24897;SDS011;12957;49.434;8.684;2023-02-15T08:01:21;34.73;;;16.07;;
24897;SDS011;12957;49.434;8.684;2023-02-15T08:03:51;38.70;;;16.27;;
24897;SDS011;12957;49.434;8.684;2023-02-15T08:06:16;30.30;;;14.77;;
24897;SDS011;12957;49.434;8.684;2023-02-15T08:08:42;36.10;;;16.20;;
24897;SDS011;12957;49.434;8.684;2023-02-15T08:11:15;37.33;;;15.93;;
24897;SDS011;12957;49.434;8.684;2023-02-15T08:13:57;36.07;;;15.63;;
24897;SDS011;12957;49.434;8.684;2023-02-15T08:19:13;30.73;;;15.00;;
24897;SDS011;12957;49.434;8.684;2023-02-15T08:21:40;33.90;;;15.73;;
24897;SDS011;12957;49.434;8.684;2023-02-15T08:24:07;28.47;;;14.53;;
24897;SDS011;12957;49.434;8.684;2023-02-15T08:26:33;26.87;;;14.20;;
24897;SDS011;12957;49.434;8.684;2023-02-15T08:28:59;34.40;;;14.50;;
24897;SDS011;12957;49.434;8.684;2023-02-15T08:31:25;28.60;;;14.13;;
24897;SDS011;12957;49.434;8.684;2023-02-15T08:33:52;29.53;;;15.43;;
24897;SDS011;12957;49.434;8.684;2023-02-15T08:36:19;32.93;;;15.90;;
24897;SDS011;12957;49.434;8.684;2023-02-15T08:38:46;30.73;;;14.23;;
24897;SDS011;12957;49.434;8.684;2023-02-15T08:41:13;32.47;;;15.13;;
24897;SDS011;12957;49.434;8.684;2023-02-15T08:43:41;29.43;;;14.97;;
24897;SDS011;12957;49.434;8.684;2023-02-15T08:46:07;28.93;;;14.17;;
24897;SDS011;12957;49.434;8.684;2023-02-15T08:48:33;28.63;;;13.30;;
24897;SDS011;12957;49.434;8.684;2023-02-15T08:50:58;27.13;;;13.97;;
24897;SDS011;12957;49.434;8.684;2023-02-15T08:53:24;24.57;;;12.93;;
24897;SDS011;12957;49.434;8.684;2023-02-15T08:55:56;22.60;;;12.53;;
24897;SDS011;12957;49.434;8.684;2023-02-15T08:58:22;24.23;;;11.80;;
24897;SDS011;12957;49.434;8.684;2023-02-15T09:00:48;22.67;;;12.23;;
24897;SDS011;12957;49.434;8.684;2023-02-15T09:03:13;22.83;;;12.07;;
24897;SDS011;12957;49.434;8.684;2023-02-15T09:05:38;23.10;;;11.60;;
24897;SDS011;12957;49.434;8.684;2023-02-15T09:08:04;25.23;;;12.67;;
24897;SDS011;12957;49.434;8.684;2023-02-15T09:10:29;24.77;;;12.90;;
24897;SDS011;12957;49.434;8.684;2023-02-15T09:12:55;21.43;;;12.20;;
24897;SDS011;12957;49.434;8.684;2023-02-15T09:15:21;21.93;;;12.60;;
24897;SDS011;12957;49.434;8.684;2023-02-15T09:17:46;22.17;;;11.80;;
24897;SDS011;12957;49.434;8.684;2023-02-15T09:20:11;22.90;;;12.77;;
24897;SDS011;12957;49.434;8.684;2023-02-15T09:22:37;21.90;;;12.03;;
24897;SDS011;12957;49.434;8.684;2023-02-15T09:25:02;21.03;;;12.43;;
24897;SDS011;12957;49.434;8.684;2023-02-15T09:27:29;22.37;;;12.27;;
24897;SDS011;12957;49.434;8.684;2023-02-15T09:29:54;23.03;;;12.10;;
24897;SDS011;12957;49.434;8.684;2023-02-15T09:32:20;21.33;;;12.20;;
24897;SDS011;12957;49.434;8.684;2023-02-15T09:34:47;20.53;;;12.00;;
24897;SDS011;12957;49.434;8.684;2023-02-15T09:37:12;21.40;;;12.27;;
24897;SDS011;12957;49.434;8.684;2023-02-15T09:39:40;22.57;;;12.57;;
24897;SDS011;12957;49.434;8.684;2023-02-15T09:50:32;21.70;;;11.53;;
24897;SDS011;12957;49.434;8.684;2023-02-15T09:55:48;21.77;;;12.53;;
24897;SDS011;12957;49.434;8.684;2023-02-15T10:09:09;25.07;;;13.10;;
24897;SDS011;12957;49.434;8.684;2023-02-15T10:19:20;25.40;;;13.83;;
24897;SDS011;12957;49.434;8.684;2023-02-15T10:22:12;23.97;;;13.33;;
24897;SDS011;12957;49.434;8.684;2023-02-15T10:27:50;25.27;;;13.47;;
24897;SDS011;12957;49.434;8.684;2023-02-15T10:30:22;22.03;;;12.60;;
24897;SDS011;12957;49.434;8.684;2023-02-15T10:32:59;25.53;;;13.17;;
24897;SDS011;12957;49.434;8.684;2023-02-15T10:35:31;23.87;;;13.33;;
24897;SDS011;12957;49.434;8.684;2023-02-15T10:38:08;24.33;;;13.33;;
24897;SDS011;12957;49.434;8.684;2023-02-15T10:41:01;29.17;;;14.00;;
24897;SDS011;12957;49.434;8.684;2023-02-15T10:46:36;28.73;;;16.03;;
24897;SDS011;12957;49.434;8.684;2023-02-15T10:49:26;29.50;;;15.87;;
24897;SDS011;12957;49.434;8.684;2023-02-15T10:54:45;32.63;;;17.03;;
24897;SDS011;12957;49.434;8.684;2023-02-15T10:57:20;34.97;;;17.10;;
24897;SDS011;12957;49.434;8.684;2023-02-15T11:00:33;30.90;;;17.00;;
24897;SDS011;12957;49.434;8.684;2023-02-15T11:02:51;36.30;;;17.90;;
24897;SDS011;12957;49.434;8.684;2023-02-15T11:05:35;35.73;;;19.13;;
24897;SDS011;12957;49.434;8.684;2023-02-15T11:08:06;38.60;;;18.90;;
24897;SDS011;12957;49.434;8.684;2023-02-15T11:10:43;36.77;;;18.83;;
24897;SDS011;12957;49.434;8.684;2023-02-15T11:13:14;35.43;;;18.70;;
24897;SDS011;12957;49.434;8.684;2023-02-15T11:16:44;37.00;;;18.60;;
24897;SDS011;12957;49.434;8.684;2023-02-15T11:19:01;37.80;;;18.00;;
24897;SDS011;12957;49.434;8.684;2023-02-15T11:21:37;36.70;;;18.00;;
24897;SDS011;12957;49.434;8.684;2023-02-15T11:24:14;38.23;;;18.30;;
24897;SDS011;12957;49.434;8.684;2023-02-15T11:26:54;36.90;;;18.57;;
24897;SDS011;12957;49.434;8.684;2023-02-15T11:32:13;35.87;;;18.90;;
24897;SDS011;12957;49.434;8.684;2023-02-15T11:34:52;37.70;;;18.87;;
24897;SDS011;12957;49.434;8.684;2023-02-15T11:37:24;35.33;;;17.97;;
24897;SDS011;12957;49.434;8.684;2023-02-15T11:39:54;37.40;;;18.37;;
24897;SDS011;12957;49.434;8.684;2023-02-15T11:42:20;34.40;;;18.27;;
24897;SDS011;12957;49.434;8.684;2023-02-15T11:47:26;30.90;;;17.13;;
24897;SDS011;12957;49.434;8.684;2023-02-15T11:49:52;37.77;;;18.83;;
24897;SDS011;12957;49.434;8.684;2023-02-15T11:52:18;39.23;;;18.20;;
24897;SDS011;12957;49.434;8.684;2023-02-15T11:54:45;32.20;;;18.13;;
24897;SDS011;12957;49.434;8.684;2023-02-15T11:59:37;34.27;;;17.50;;
24897;SDS011;12957;49.434;8.684;2023-02-15T12:02:16;36.43;;;19.10;;
24897;SDS011;12957;49.434;8.684;2023-02-15T12:04:54;39.53;;;19.90;;
24897;SDS011;12957;49.434;8.684;2023-02-15T12:07:26;36.40;;;17.40;;
24897;SDS011;12957;49.434;8.684;2023-02-15T12:10:03;28.53;;;15.70;;
24897;SDS011;12957;49.434;8.684;2023-02-15T12:12:33;28.37;;;15.87;;
24897;SDS011;12957;49.434;8.684;2023-02-15T12:15:00;25.63;;;15.17;;
24897;SDS011;12957;49.434;8.684;2023-02-15T12:17:28;27.17;;;15.27;;
24897;SDS011;12957;49.434;8.684;2023-02-15T12:19:55;27.00;;;15.00;;
24897;SDS011;12957;49.434;8.684;2023-02-15T12:22:24;29.50;;;14.40;;
24897;SDS011;12957;49.434;8.684;2023-02-15T12:24:54;26.75;;;14.50;;
24897;SDS011;12957;49.434;8.684;2023-02-15T12:27:21;28.90;;;14.10;;
24897;SDS011;12957;49.434;8.684;2023-02-15T12:32:28;30.10;;;17.03;;
24897;SDS011;12957;49.434;8.684;2023-02-15T12:34:59;28.97;;;16.33;;
24897;SDS011;12957;49.434;8.684;2023-02-15T12:37:27;29.57;;;16.27;;
24897;SDS011;12957;49.434;8.684;2023-02-15T12:39:55;28.67;;;15.93;;
24897;SDS011;12957;49.434;8.684;2023-02-15T12:42:21;39.53;;;20.13;;
24897;SDS011;12957;49.434;8.684;2023-02-15T12:44:53;35.63;;;18.40;;
24897;SDS011;12957;49.434;8.684;2023-02-15T12:47:19;34.00;;;18.90;;
24897;SDS011;12957;49.434;8.684;2023-02-15T12:49:45;34.53;;;18.77;;
24897;SDS011;12957;49.434;8.684;2023-02-15T12:52:42;37.50;;;19.80;;
24897;SDS011;12957;49.434;8.684;2023-02-15T12:55:23;36.20;;;19.58;;
24897;SDS011;12957;49.434;8.684;2023-02-15T12:58:04;38.63;;;20.60;;
24897;SDS011;12957;49.434;8.684;2023-02-15T13:00:30;35.23;;;18.90;;
24897;SDS011;12957;49.434;8.684;2023-02-15T13:02:57;37.27;;;20.40;;
24897;SDS011;12957;49.434;8.684;2023-02-15T13:05:42;36.93;;;19.27;;
24897;SDS011;12957;49.434;8.684;2023-02-15T13:08:27;35.67;;;19.33;;
24897;SDS011;12957;49.434;8.684;2023-02-15T13:13:21;36.47;;;19.93;;
24897;SDS011;12957;49.434;8.684;2023-02-15T13:15:52;40.77;;;20.00;;
24897;SDS011;12957;49.434;8.684;2023-02-15T13:18:25;39.90;;;20.07;;
24897;SDS011;12957;49.434;8.684;2023-02-15T13:20:54;38.15;;;20.67;;
24897;SDS011;12957;49.434;8.684;2023-02-15T13:23:26;41.53;;;20.83;;
24897;SDS011;12957;49.434;8.684;2023-02-15T13:25:52;43.80;;;20.40;;
24897;SDS011;12957;49.434;8.684;2023-02-15T13:28:22;38.90;;;20.60;;
24897;SDS011;12957;49.434;8.684;2023-02-15T13:30:49;34.60;;;19.70;;
24897;SDS011;12957;49.434;8.684;2023-02-15T13:33:31;36.17;;;19.63;;
24897;SDS011;12957;49.434;8.684;2023-02-15T13:38:43;43.73;;;21.77;;
24897;SDS011;12957;49.434;8.684;2023-02-15T13:41:27;41.20;;;20.90;;
24897;SDS011;12957;49.434;8.684;2023-02-15T13:44:09;36.50;;;20.60;;
24897;SDS011;12957;49.434;8.684;2023-02-15T13:52:17;37.53;;;20.90;;
24897;SDS011;12957;49.434;8.684;2023-02-15T14:16:45;41.43;;;23.17;;
24897;SDS011;12957;49.434;8.684;2023-02-15T14:19:35;40.40;;;22.07;;
24897;SDS011;12957;49.434;8.684;2023-02-15T14:30:30;46.73;;;22.13;;
24897;SDS011;12957;49.434;8.684;2023-02-15T14:33:04;41.97;;;22.10;;
24897;SDS011;12957;49.434;8.684;2023-02-15T14:35:31;41.90;;;22.40;;
24897;SDS011;12957;49.434;8.684;2023-02-15T14:43:40;38.97;;;21.20;;
24897;SDS011;12957;49.434;8.684;2023-02-15T14:46:21;35.93;;;20.57;;
24897;SDS011;12957;49.434;8.684;2023-02-15T14:48:49;38.20;;;20.70;;
24897;SDS011;12957;49.434;8.684;2023-02-15T14:52:05;38.17;;;20.38;;
24897;SDS011;12957;49.434;8.684;2023-02-15T15:02:45;46.87;;;22.00;;
24897;SDS011;12957;49.434;8.684;2023-02-15T15:07:52;38.17;;;21.97;;
24897;SDS011;12957;49.434;8.684;2023-02-15T15:15:52;40.57;;;22.77;;
24897;SDS011;12957;49.434;8.684;2023-02-15T15:22:02;38.87;;;21.50;;
24897;SDS011;12957;49.434;8.684;2023-02-15T15:32:38;39.27;;;21.67;;
24897;SDS011;12957;49.434;8.684;2023-02-15T15:38:14;40.90;;;21.13;;
24897;SDS011;12957;49.434;8.684;2023-02-15T15:46:45;41.83;;;22.60;;
24897;SDS011;12957;49.434;8.684;2023-02-15T15:49:28;49.43;;;22.47;;
24897;SDS011;12957;49.434;8.684;2023-02-15T15:51:59;41.23;;;22.60;;
24897;SDS011;12957;49.434;8.684;2023-02-15T15:54:38;39.33;;;22.03;;
24897;SDS011;12957;49.434;8.684;2023-02-15T15:57:04;39.23;;;21.23;;
24897;SDS011;12957;49.434;8.684;2023-02-15T15:59:32;44.53;;;22.43;;
24897;SDS011;12957;49.434;8.684;2023-02-15T16:02:11;47.97;;;22.47;;
24897;SDS011;12957;49.434;8.684;2023-02-15T16:04:40;40.90;;;22.23;;
24897;SDS011;12957;49.434;8.684;2023-02-15T16:09:40;41.20;;;22.33;;
24897;SDS011;12957;49.434;8.684;2023-02-15T16:12:13;36.30;;;20.87;;
24897;SDS011;12957;49.434;8.684;2023-02-15T16:14:39;42.13;;;22.23;;
24897;SDS011;12957;49.434;8.684;2023-02-15T16:17:07;41.80;;;23.10;;
24897;SDS011;12957;49.434;8.684;2023-02-15T16:19:38;43.50;;;23.97;;
24897;SDS011;12957;49.434;8.684;2023-02-15T16:22:13;42.97;;;23.40;;
24897;SDS011;12957;49.434;8.684;2023-02-15T16:30:13;44.03;;;23.30;;
24897;SDS011;12957;49.434;8.684;2023-02-15T16:32:42;46.37;;;23.53;;
24897;SDS011;12957;49.434;8.684;2023-02-15T16:35:14;45.40;;;24.00;;
24897;SDS011;12957;49.434;8.684;2023-02-15T16:37:41;46.27;;;24.07;;
24897;SDS011;12957;49.434;8.684;2023-02-15T16:40:14;41.87;;;23.63;;
24897;SDS011;12957;49.434;8.684;2023-02-15T16:42:48;45.00;;;24.00;;
24897;SDS011;12957;49.434;8.684;2023-02-15T16:45:15;49.37;;;23.93;;
24897;SDS011;12957;49.434;8.684;2023-02-15T16:47:46;46.07;;;23.93;;
24897;SDS011;12957;49.434;8.684;2023-02-15T16:50:22;50.43;;;26.43;;
24897;SDS011;12957;49.434;8.684;2023-02-15T16:52:49;45.90;;;24.40;;
24897;SDS011;12957;49.434;8.684;2023-02-15T16:55:26;44.07;;;24.33;;
24897;SDS011;12957;49.434;8.684;2023-02-15T16:57:54;55.90;;;25.57;;
24897;SDS011;12957;49.434;8.684;2023-02-15T17:00:25;50.17;;;25.57;;
24897;SDS011;12957;49.434;8.684;2023-02-15T17:05:20;44.53;;;23.37;;
24897;SDS011;12957;49.434;8.684;2023-02-15T17:07:50;55.03;;;24.60;;
24897;SDS011;12957;49.434;8.684;2023-02-15T17:10:26;46.60;;;24.93;;
24897;SDS011;12957;49.434;8.684;2023-02-15T17:12:55;47.53;;;23.83;;
24897;SDS011;12957;49.434;8.684;2023-02-15T17:15:29;48.07;;;23.97;;
24897;SDS011;12957;49.434;8.684;2023-02-15T17:17:58;49.03;;;23.47;;
24897;SDS011;12957;49.434;8.684;2023-02-15T17:20:31;46.67;;;21.90;;
24897;SDS011;12957;49.434;8.684;2023-02-15T17:22:57;53.77;;;24.73;;
24897;SDS011;12957;49.434;8.684;2023-02-15T17:25:24;53.43;;;24.47;;
24897;SDS011;12957;49.434;8.684;2023-02-15T17:27:54;49.53;;;23.90;;
24897;SDS011;12957;49.434;8.684;2023-02-15T17:30:25;47.17;;;24.17;;
24897;SDS011;12957;49.434;8.684;2023-02-15T17:33:02;45.67;;;22.60;;
24897;SDS011;12957;49.434;8.684;2023-02-15T17:35:29;49.30;;;23.23;;
24897;SDS011;12957;49.434;8.684;2023-02-15T17:40:50;45.33;;;21.83;;
24897;SDS011;12957;49.434;8.684;2023-02-15T17:43:15;44.97;;;22.73;;
24897;SDS011;12957;49.434;8.684;2023-02-15T17:45:46;46.40;;;21.73;;
24897;SDS011;12957;49.434;8.684;2023-02-15T17:48:18;44.23;;;22.13;;
24897;SDS011;12957;49.434;8.684;2023-02-15T17:50:45;50.87;;;24.03;;
24897;SDS011;12957;49.434;8.684;2023-02-15T17:53:11;51.73;;;22.77;;